Time;durP1;ratioP1;P1;durP2;ratioP2;P2;SDS_P1;SDS_P2;PMS_P1;PMS_P2;Temp;Humidity;BMP_temperature;BMP_pressure;BME280_temperature;BME280_humidity;BME280_pressure;Samples;Min_cycle;Max_cycle;Signal;HPM_P1;HPM_P2
2023/10/31 00:01:20;;;;;;;16.60;9.40;;;;;;;;;;10366231;28;20405;-82
2023/10/31 00:06:21;;;;;;;15.35;8.63;;;;;;;;;;10343290;28;20033;-81
2023/10/31 00:11:22;;;;;;;16.55;8.52;;;;;;;;;;10360485;28;20030;-82
2023/10/31 00:16:23;;;;;;;13.65;8.27;;;;;;;;;;10360587;28;20018;-81
2023/10/31 00:21:24;;;;;;;21.08;9.95;;;;;;;;;;10367208;28;20415;-82
2023/10/31 00:26:25;;;;;;;30.23;15.52;;;;;;;;;;10362164;28;20045;-81
2023/10/31 00:31:34;;;;;;;30.10;13.95;;;;;;;;;;10360249;28;20124;-81
2023/10/31 00:36:35;;;;;;;21.42;10.02;;;;;;;;;;10363469;28;21166;-82
2023/10/31 00:41:46;;;;;;;25.63;12.60;;;;;;;;;;10361191;28;20079;-81
2023/10/31 00:46:47;;;;;;;20.42;9.55;;;;;;;;;;10362712;28;20025;-81
2023/10/31 00:51:48;;;;;;;20.27;8.98;;;;;;;;;;10375520;28;20061;-82
2023/10/31 00:56:49;;;;;;;20.60;8.82;;;;;;;;;;10376172;28;20565;-82
2023/10/31 01:01:50;;;;;;;18.77;7.22;;;;;;;;;;10368411;28;20041;-81
2023/10/31 01:06:51;;;;;;;13.93;6.22;;;;;;;;;;10370515;28;20026;-82
2023/10/31 01:11:59;;;;;;;12.27;6.22;;;;;;;;;;10368922;28;20029;-82
2023/10/31 01:17:00;;;;;;;12.57;5.55;;;;;;;;;;10367151;28;20470;-81
2023/10/31 01:22:01;;;;;;;9.27;5.20;;;;;;;;;;10369478;28;20052;-82
2023/10/31 01:27:02;;;;;;;10.10;5.00;;;;;;;;;;10373116;28;20030;-81
2023/10/31 01:32:03;;;;;;;11.43;5.38;;;;;;;;;;10367312;28;20092;-82
2023/10/31 01:37:04;;;;;;;11.55;5.85;;;;;;;;;;10371275;28;20057;-81
2023/10/31 01:42:05;;;;;;;10.57;4.63;;;;;;;;;;10367358;28;20092;-81
2023/10/31 01:47:06;;;;;;;10.02;4.57;;;;;;;;;;10373402;28;20851;-81
2023/10/31 01:52:07;;;;;;;11.38;3.90;;;;;;;;;;10374666;28;20029;-81
2023/10/31 01:57:08;;;;;;;7.85;4.13;;;;;;;;;;10368872;28;20766;-81
2023/10/31 02:02:09;;;;;;;8.40;4.22;;;;;;;;;;10366159;28;20053;-80
2023/10/31 02:07:10;;;;;;;10.30;4.22;;;;;;;;;;10367659;28;20474;-82
2023/10/31 02:12:11;;;;;;;12.68;5.13;;;;;;;;;;10377009;28;20030;-80
2023/10/31 02:17:12;;;;;;;7.13;3.97;;;;;;;;;;10369205;28;20437;-82
2023/10/31 02:22:13;;;;;;;9.93;4.07;;;;;;;;;;10364406;28;20084;-81
2023/10/31 02:27:14;;;;;;;8.35;3.92;;;;;;;;;;10366515;28;20030;-81
2023/10/31 02:32:15;;;;;;;8.02;4.00;;;;;;;;;;10364856;28;20034;-84
2023/10/31 02:37:16;;;;;;;10.23;5.28;;;;;;;;;;10349519;28;20045;-82
2023/10/31 02:42:17;;;;;;;8.80;4.03;;;;;;;;;;10364802;28;20034;-81
2023/10/31 02:47:18;;;;;;;9.98;4.57;;;;;;;;;;10370378;28;20108;-82
2023/10/31 02:52:19;;;;;;;10.18;4.18;;;;;;;;;;10350028;28;20080;-81
2023/10/31 02:57:20;;;;;;;8.45;4.45;;;;;;;;;;10368582;28;20025;-80
2023/10/31 03:02:22;;;;;;;9.65;4.13;;;;;;;;;;10363423;28;20033;-83
2023/10/31 03:07:23;;;;;;;8.40;4.50;;;;;;;;;;10362986;28;20034;-81
2023/10/31 03:12:24;;;;;;;10.25;4.30;;;;;;;;;;10363616;28;20634;-81
2023/10/31 03:17:27;;;;;;;8.48;4.47;;;;;;;;;;10365820;28;20033;-81
2023/10/31 03:22:28;;;;;;;6.55;3.50;;;;;;;;;;10374650;28;20045;-82
2023/10/31 03:27:29;;;;;;;7.32;4.13;;;;;;;;;;10363815;28;20032;-83
2023/10/31 03:32:30;;;;;;;9.10;3.85;;;;;;;;;;10364062;28;20052;-82
2023/10/31 03:37:31;;;;;;;15.07;4.22;;;;;;;;;;10369733;28;20054;-81
2023/10/31 03:42:32;;;;;;;9.48;4.30;;;;;;;;;;10368589;28;20077;-82
2023/10/31 03:47:33;;;;;;;7.63;4.03;;;;;;;;;;10368582;28;20033;-81
2023/10/31 03:52:34;;;;;;;6.20;3.35;;;;;;;;;;10366454;28;20132;-82
2023/10/31 03:57:35;;;;;;;7.22;3.97;;;;;;;;;;10362187;28;20034;-83
2023/10/31 04:02:36;;;;;;;9.02;3.47;;;;;;;;;;10361305;28;20038;-82
2023/10/31 04:07:38;;;;;;;7.05;3.53;;;;;;;;;;10362021;28;20048;-80
2023/10/31 04:12:39;;;;;;;4.30;2.88;;;;;;;;;;10365494;28;20137;-81
2023/10/31 04:17:40;;;;;;;5.82;2.53;;;;;;;;;;10362287;28;20033;-81
2023/10/31 04:22:41;;;;;;;4.88;2.58;;;;;;;;;;10359397;28;20034;-81
2023/10/31 04:27:42;;;;;;;9.90;3.42;;;;;;;;;;10358685;28;20034;-82
2023/10/31 04:32:43;;;;;;;8.52;4.30;;;;;;;;;;10367833;28;20032;-82
2023/10/31 04:37:44;;;;;;;11.40;5.10;;;;;;;;;;10360692;28;20084;-82
2023/10/31 04:42:47;;;;;;;8.98;3.38;;;;;;;;;;10372596;28;20052;-81
2023/10/31 04:47:48;;;;;;;5.18;2.90;;;;;;;;;;10344447;28;20065;-81
2023/10/31 04:52:49;;;;;;;4.22;2.60;;;;;;;;;;10361477;28;20042;-82
2023/10/31 04:57:50;;;;;;;10.05;3.08;;;;;;;;;;10362573;28;20033;-83
2023/10/31 05:02:51;;;;;;;10.10;2.97;;;;;;;;;;10368900;28;20444;-82
2023/10/31 05:07:52;;;;;;;7.53;2.42;;;;;;;;;;10360568;28;20084;-83
2023/10/31 05:12:53;;;;;;;7.18;2.53;;;;;;;;;;10362987;28;20087;-82
2023/10/31 05:17:54;;;;;;;5.47;2.40;;;;;;;;;;10360772;28;20037;-81
2023/10/31 05:22:55;;;;;;;7.15;3.45;;;;;;;;;;10362415;28;20033;-81
2023/10/31 05:27:56;;;;;;;4.45;2.33;;;;;;;;;;10368605;28;20034;-82
2023/10/31 05:32:57;;;;;;;4.43;2.60;;;;;;;;;;10368884;28;20363;-83
2023/10/31 05:37:58;;;;;;;8.07;2.90;;;;;;;;;;10367452;28;20104;-80
2023/10/31 05:43:00;;;;;;;7.72;2.33;;;;;;;;;;10367507;28;20547;-79
2023/10/31 05:48:01;;;;;;;4.70;2.42;;;;;;;;;;10371181;28;20030;-81
2023/10/31 05:53:02;;;;;;;8.40;3.15;;;;;;;;;;10341671;28;20060;-81
2023/10/31 05:58:03;;;;;;;13.57;4.70;;;;;;;;;;10377500;28;20042;-82
2023/10/31 06:03:04;;;;;;;10.43;2.97;;;;;;;;;;10342077;28;20492;-81
2023/10/31 06:08:05;;;;;;;11.23;4.45;;;;;;;;;;10376578;28;20021;-81
2023/10/31 06:13:06;;;;;;;15.95;6.97;;;;;;;;;;10391635;28;20026;-84
2023/10/31 06:18:07;;;;;;;12.00;3.30;;;;;;;;;;10374835;28;20025;-84
2023/10/31 06:23:08;;;;;;;9.85;3.33;;;;;;;;;;10381899;28;20029;-82
2023/10/31 06:28:15;;;;;;;10.30;2.85;;;;;;;;;;10403529;28;20076;-83
2023/10/31 06:33:16;;;;;;;5.78;2.42;;;;;;;;;;10383405;28;20037;-83
2023/10/31 06:38:17;;;;;;;9.43;4.10;;;;;;;;;;10368738;28;20452;-82
2023/10/31 06:43:18;;;;;;;8.25;2.83;;;;;;;;;;10386224;28;20022;-80
2023/10/31 06:48:19;;;;;;;6.35;2.70;;;;;;;;;;10389040;28;20091;-82
2023/10/31 06:53:21;;;;;;;5.90;1.88;;;;;;;;;;10374593;28;20367;-85
2023/10/31 06:58:22;;;;;;;7.03;2.20;;;;;;;;;;10391522;28;20039;-87
2023/10/31 07:03:29;;;;;;;5.53;1.88;;;;;;;;;;10382207;28;20022;-84
2023/10/31 07:08:30;;;;;;;6.05;2.33;;;;;;;;;;10360386;28;20037;-83
2023/10/31 07:13:31;;;;;;;6.47;1.95;;;;;;;;;;10355011;28;20030;-84
2023/10/31 07:18:32;;;;;;;5.93;1.90;;;;;;;;;;10366409;28;20026;-83
2023/10/31 07:23:33;;;;;;;9.68;2.25;;;;;;;;;;10385629;28;20369;-87
2023/10/31 07:28:34;;;;;;;3.33;1.65;;;;;;;;;;10378110;28;20026;-83
2023/10/31 07:33:35;;;;;;;5.97;2.30;;;;;;;;;;10367971;28;20092;-84
2023/10/31 07:38:36;;;;;;;6.22;2.80;;;;;;;;;;10359510;28;20053;-83
2023/10/31 07:43:38;;;;;;;4.63;2.05;;;;;;;;;;10370643;28;20037;-83
2023/10/31 07:48:39;;;;;;;6.50;2.50;;;;;;;;;;10392314;28;20802;-84
2023/10/31 07:53:47;;;;;;;7.20;2.90;;;;;;;;;;10394210;28;20048;-85
2023/10/31 07:58:48;;;;;;;4.45;2.22;;;;;;;;;;10390560;28;20385;-83
2023/10/31 08:03:49;;;;;;;8.20;1.92;;;;;;;;;;10369857;28;20045;-82
2023/10/31 08:08:53;;;;;;;9.38;4.63;;;;;;;;;;10387719;28;20021;-85
2023/10/31 08:13:54;;;;;;;4.65;2.53;;;;;;;;;;10384808;28;20038;-82
2023/10/31 08:18:55;;;;;;;5.45;2.55;;;;;;;;;;10383640;28;20044;-83
2023/10/31 08:23:56;;;;;;;4.38;2.17;;;;;;;;;;10390554;28;20034;-83
2023/10/31 08:28:57;;;;;;;5.25;2.42;;;;;;;;;;10403325;28;20045;-84
2023/10/31 08:33:58;;;;;;;4.28;2.33;;;;;;;;;;10387940;28;20436;-85
2023/10/31 08:38:59;;;;;;;4.93;2.58;;;;;;;;;;10386796;28;20050;-83
2023/10/31 08:44:03;;;;;;;7.00;2.70;;;;;;;;;;10393627;28;20075;-88
2023/10/31 08:49:07;;;;;;;5.47;3.15;;;;;;;;;;10362184;28;20037;-83
2023/10/31 08:54:11;;;;;;;6.15;2.92;;;;;;;;;;10386122;28;20095;-83
2023/10/31 08:59:12;;;;;;;5.20;3.20;;;;;;;;;;10377646;28;20046;-86
2023/10/31 09:04:13;;;;;;;6.40;3.30;;;;;;;;;;10361644;28;20049;-83
2023/10/31 09:09:15;;;;;;;6.88;3.30;;;;;;;;;;10387803;28;20025;-87
2023/10/31 09:14:16;;;;;;;9.25;3.92;;;;;;;;;;10389010;28;20030;-82
2023/10/31 09:19:17;;;;;;;7.43;4.28;;;;;;;;;;10373406;28;20689;-83
2023/10/31 09:24:18;;;;;;;9.15;4.50;;;;;;;;;;10404452;28;20036;-83
2023/10/31 09:29:19;;;;;;;8.93;4.18;;;;;;;;;;10399951;28;20034;-82
2023/10/31 09:34:20;;;;;;;5.53;3.72;;;;;;;;;;10352344;28;20109;-86
2023/10/31 09:39:22;;;;;;;7.90;3.95;;;;;;;;;;10362589;28;20054;-83
2023/10/31 09:44:24;;;;;;;5.97;3.58;;;;;;;;;;10367105;28;20048;-83
2023/10/31 09:49:25;;;;;;;8.23;3.90;;;;;;;;;;10351669;28;20081;-85
2023/10/31 09:54:26;;;;;;;8.27;3.50;;;;;;;;;;10368416;28;20034;-80
2023/10/31 09:59:28;;;;;;;5.97;3.40;;;;;;;;;;10364779;28;20079;-83
2023/10/31 10:04:29;;;;;;;4.05;2.78;;;;;;;;;;10360523;28;20038;-85
2023/10/31 10:09:32;;;;;;;6.20;3.53;;;;;;;;;;10366800;28;20030;-86
2023/10/31 10:14:33;;;;;;;5.47;2.22;;;;;;;;;;10348196;28;20690;-84
2023/10/31 10:19:34;;;;;;;5.95;2.53;;;;;;;;;;10365792;28;20042;-83
2023/10/31 10:24:35;;;;;;;5.60;2.67;;;;;;;;;;10365284;28;20115;-84
2023/10/31 10:29:37;;;;;;;4.25;2.47;;;;;;;;;;10365529;28;20140;-83
2023/10/31 10:34:38;;;;;;;4.57;2.55;;;;;;;;;;10331736;28;20036;-85
2023/10/31 10:39:41;;;;;;;4.63;2.55;;;;;;;;;;10363938;28;20057;-87
2023/10/31 10:44:44;;;;;;;4.75;2.80;;;;;;;;;;10363928;28;20087;-85
2023/10/31 10:49:47;;;;;;;5.72;2.90;;;;;;;;;;10362852;28;20524;-80
2023/10/31 10:55:03;;;;;;;6.68;3.50;;;;;;;;;;10361034;28;20034;-87
2023/10/31 11:00:09;;;;;;;5.07;3.15;;;;;;;;;;10363521;28;20049;-83
2023/10/31 11:05:10;;;;;;;10.25;3.63;;;;;;;;;;10364238;28;20033;-86
2023/10/31 11:10:11;;;;;;;4.80;3.15;;;;;;;;;;10364714;28;20049;-88
2023/10/31 11:15:15;;;;;;;3.97;2.30;;;;;;;;;;10358852;28;20033;-85
2023/10/31 11:20:16;;;;;;;6.63;2.72;;;;;;;;;;10375078;28;20550;-84
2023/10/31 11:25:23;;;;;;;4.18;2.50;;;;;;;;;;10387931;28;20033;-85
2023/10/31 11:30:30;;;;;;;5.90;2.60;;;;;;;;;;10389260;28;20028;-85
2023/10/31 11:35:33;;;;;;;4.75;2.60;;;;;;;;;;10386387;28;20049;-85
2023/10/31 11:40:35;;;;;;;8.93;4.93;;;;;;;;;;10365352;28;20584;-87
2023/10/31 11:45:41;;;;;;;5.13;2.63;;;;;;;;;;10357802;28;20034;-85
2023/10/31 11:50:42;;;;;;;4.22;2.08;;;;;;;;;;10368949;28;20385;-86
2023/10/31 11:55:44;;;;;;;3.25;2.15;;;;;;;;;;10380557;28;20063;-85
2023/10/31 12:00:47;;;;;;;3.65;2.05;;;;;;;;;;10362686;28;20187;-87
2023/10/31 12:05:52;;;;;;;3.33;1.80;;;;;;;;;;10371254;28;20037;-84
2023/10/31 12:10:53;;;;;;;2.97;2.03;;;;;;;;;;10368116;28;20053;-85
2023/10/31 12:15:54;;;;;;;3.25;1.95;;;;;;;;;;10348090;28;20029;-84
2023/10/31 12:20:55;;;;;;;6.72;2.42;;;;;;;;;;10356225;28;20493;-88
2023/10/31 12:25:57;;;;;;;5.18;2.63;;;;;;;;;;10368758;28;20487;-84
2023/10/31 12:30:58;;;;;;;4.57;2.15;;;;;;;;;;10344915;28;20401;-84
2023/10/31 12:36:00;;;;;;;4.80;1.83;;;;;;;;;;10361733;28;20379;-87
2023/10/31 12:41:01;;;;;;;7.13;2.40;;;;;;;;;;10352684;28;20131;-84
2023/10/31 12:46:22;;;;;;;3.35;2.20;;;;;;;;;;10369771;28;20697;-86
2023/10/31 12:51:23;;;;;;;3.38;2.10;;;;;;;;;;10350212;28;20038;-83
2023/10/31 12:56:40;;;;;;;5.25;2.40;;;;;;;;;;10362898;28;20040;-86
2023/10/31 13:01:51;;;;;;;4.55;2.17;;;;;;;;;;10360561;28;20041;-83
2023/10/31 13:06:59;;;;;;;4.25;2.17;;;;;;;;;;10371105;28;20033;-83
2023/10/31 13:12:01;;;;;;;9.02;4.00;;;;;;;;;;10362075;28;20117;-84
2023/10/31 13:17:02;;;;;;;10.48;4.50;;;;;;;;;;10362834;28;20096;-84
2023/10/31 13:22:03;;;;;;;9.32;4.80;;;;;;;;;;10365289;28;20485;-84
2023/10/31 13:27:06;;;;;;;7.07;3.92;;;;;;;;;;10366912;28;20042;-83
2023/10/31 13:32:08;;;;;;;7.82;4.10;;;;;;;;;;10363331;28;20032;-82
2023/10/31 13:37:09;;;;;;;6.80;3.90;;;;;;;;;;10361325;28;20076;-86
2023/10/31 13:42:10;;;;;;;4.88;2.92;;;;;;;;;;10360005;28;20112;-85
2023/10/31 13:47:18;;;;;;;5.00;2.90;;;;;;;;;;10357687;28;20101;-84
2023/10/31 13:52:31;;;;;;;7.43;2.78;;;;;;;;;;10364269;28;20508;-85
2023/10/31 13:57:32;;;;;;;6.55;3.50;;;;;;;;;;10368041;28;20048;-83
2023/10/31 14:02:33;;;;;;;5.93;3.60;;;;;;;;;;10367167;28;20036;-83
2023/10/31 14:07:35;;;;;;;7.28;4.28;;;;;;;;;;10363745;28;20534;-83
2023/10/31 14:12:36;;;;;;;7.00;4.15;;;;;;;;;;10367120;28;20018;-82
2023/10/31 14:17:37;;;;;;;9.32;4.25;;;;;;;;;;10366226;28;20428;-83
2023/10/31 14:22:38;;;;;;;10.80;5.35;;;;;;;;;;10373290;28;20030;-81
2023/10/31 14:27:39;;;;;;;10.80;6.78;;;;;;;;;;10366713;28;20083;-83
2023/10/31 14:32:40;;;;;;;14.65;7.13;;;;;;;;;;10342941;28;20425;-83
2023/10/31 14:37:41;;;;;;;13.30;6.80;;;;;;;;;;10366081;28;20029;-82
2023/10/31 14:43:03;;;;;;;17.13;8.75;;;;;;;;;;10367103;28;20054;-82
2023/10/31 14:48:11;;;;;;;15.90;8.93;;;;;;;;;;10380242;28;20029;-80
2023/10/31 14:53:12;;;;;;;17.70;9.85;;;;;;;;;;10387647;28;20486;-81
2023/10/31 14:58:13;;;;;;;20.05;10.95;;;;;;;;;;10395203;28;20026;-83
2023/10/31 15:03:14;;;;;;;21.85;13.27;;;;;;;;;;10390383;28;20435;-79
2023/10/31 15:08:15;;;;;;;31.63;18.95;;;;;;;;;;10381052;28;20025;-83
2023/10/31 15:13:16;;;;;;;44.63;26.27;;;;;;;;;;10369513;28;20025;-81
2023/10/31 15:18:17;;;;;;;47.40;27.85;;;;;;;;;;10377901;28;20021;-80
2023/10/31 15:23:18;;;;;;;46.67;28.23;;;;;;;;;;10380734;28;20033;-80
2023/10/31 15:28:19;;;;;;;33.65;22.17;;;;;;;;;;10389526;28;20036;-81
2023/10/31 15:33:20;;;;;;;57.17;32.03;;;;;;;;;;10380406;28;20501;-79
2023/10/31 15:38:28;;;;;;;48.92;27.70;;;;;;;;;;10376229;28;20024;-80
2023/10/31 15:43:29;;;;;;;49.70;26.35;;;;;;;;;;10341593;28;20065;-78
2023/10/31 15:48:30;;;;;;;95.65;53.88;;;;;;;;;;10350469;28;20581;-80
2023/10/31 15:53:31;;;;;;;88.90;52.80;;;;;;;;;;10342198;28;20068;-78
2023/10/31 15:58:32;;;;;;;117.00;68.97;;;;;;;;;;10346390;28;20490;-83
2023/10/31 16:03:36;;;;;;;85.25;48.88;;;;;;;;;;10336916;28;20028;-84
2023/10/31 16:08:39;;;;;;;192.27;113.88;;;;;;;;;;10328455;28;20432;-82
2023/10/31 16:13:40;;;;;;;224.57;129.07;;;;;;;;;;10329420;28;20034;-81
2023/10/31 16:18:41;;;;;;;145.63;88.57;;;;;;;;;;10331076;28;20143;-82
2023/10/31 16:23:42;;;;;;;155.73;97.18;;;;;;;;;;10330755;28;20034;-88
2023/10/31 16:28:46;;;;;;;152.95;86.90;;;;;;;;;;10335609;28;20040;-81
2023/10/31 16:33:47;;;;;;;67.32;39.13;;;;;;;;;;10344611;28;20548;-84
2023/10/31 16:38:48;;;;;;;95.60;59.92;;;;;;;;;;10327941;28;20049;-84
2023/10/31 16:43:50;;;;;;;63.35;42.45;;;;;;;;;;10381536;28;20018;-83
2023/10/31 16:48:51;;;;;;;59.00;37.55;;;;;;;;;;10372181;28;20024;-80
2023/10/31 16:53:52;;;;;;;64.85;42.17;;;;;;;;;;10380333;28;20041;-84
2023/10/31 16:58:53;;;;;;;296.92;162.20;;;;;;;;;;10363473;28;20034;-83
2023/10/31 17:03:54;;;;;;;119.20;64.93;;;;;;;;;;10388284;28;20073;-81
2023/10/31 17:08:56;;;;;;;58.78;37.08;;;;;;;;;;10375920;28;20087;-85
2023/10/31 17:13:58;;;;;;;70.07;38.30;;;;;;;;;;10373159;28;20109;-81
2023/10/31 17:18:59;;;;;;;114.10;54.88;;;;;;;;;;10367426;28;20038;-81
2023/10/31 17:24:00;;;;;;;88.78;46.92;;;;;;;;;;10370975;28;20038;-82
2023/10/31 17:29:01;;;;;;;98.50;50.40;;;;;;;;;;10382610;28;20059;-84
2023/10/31 17:34:05;;;;;;;71.93;42.80;;;;;;;;;;10376186;28;20113;-83
2023/10/31 17:39:06;;;;;;;40.30;23.95;;;;;;;;;;10383320;28;20089;-84
2023/10/31 17:44:07;;;;;;;51.15;29.00;;;;;;;;;;10367469;28;20444;-83
2023/10/31 17:49:08;;;;;;;35.10;23.15;;;;;;;;;;10357812;28;20034;-82
2023/10/31 17:54:09;;;;;;;42.00;24.30;;;;;;;;;;10380448;28;20072;-83
2023/10/31 17:59:10;;;;;;;55.80;32.65;;;;;;;;;;10371210;28;20045;-83
2023/10/31 18:04:11;;;;;;;42.88;27.35;;;;;;;;;;10382675;28;20030;-82
2023/10/31 18:09:13;;;;;;;30.80;18.60;;;;;;;;;;10351314;28;20038;-83
2023/10/31 18:14:14;;;;;;;34.10;20.13;;;;;;;;;;10365634;28;20025;-82
2023/10/31 18:19:15;;;;;;;29.40;17.50;;;;;;;;;;10375487;28;20033;-82
2023/10/31 18:24:16;;;;;;;28.88;17.38;;;;;;;;;;10363501;28;20589;-83
2023/10/31 18:29:17;;;;;;;35.90;22.83;;;;;;;;;;10360247;28;20037;-84
2023/10/31 18:34:21;;;;;;;33.20;20.75;;;;;;;;;;10380551;28;20026;-85
2023/10/31 18:39:29;;;;;;;30.17;19.73;;;;;;;;;;10377260;28;20107;-84
2023/10/31 18:44:31;;;;;;;25.52;16.45;;;;;;;;;;10352230;28;20117;-82
2023/10/31 18:49:32;;;;;;;23.98;12.02;;;;;;;;;;10347045;28;20732;-83
2023/10/31 18:54:34;;;;;;;21.98;11.90;;;;;;;;;;10368885;28;20034;-83
2023/10/31 18:59:35;;;;;;;25.08;15.45;;;;;;;;;;10346221;28;20042;-82
2023/10/31 19:04:43;;;;;;;26.63;16.45;;;;;;;;;;10354428;28;20043;-85
2023/10/31 19:09:44;;;;;;;23.55;15.27;;;;;;;;;;10358333;28;20033;-84
2023/10/31 19:14:45;;;;;;;22.98;15.27;;;;;;;;;;10385565;28;20065;-79
2023/10/31 19:19:46;;;;;;;33.92;18.55;;;;;;;;;;10392321;28;20037;-83
2023/10/31 19:24:47;;;;;;;23.02;14.90;;;;;;;;;;10377768;28;20034;-82
2023/10/31 19:29:48;;;;;;;22.35;12.82;;;;;;;;;;10353706;28;20026;-83
2023/10/31 19:34:50;;;;;;;26.05;15.10;;;;;;;;;;10365665;28;20026;-83
2023/10/31 19:39:51;;;;;;;19.77;12.73;;;;;;;;;;10355195;28;20069;-84
2023/10/31 19:44:52;;;;;;;18.67;11.18;;;;;;;;;;10356280;28;20026;-84
2023/10/31 19:49:53;;;;;;;17.50;9.88;;;;;;;;;;10362743;28;20030;-83
2023/10/31 19:54:54;;;;;;;19.23;9.98;;;;;;;;;;10345381;28;20989;-82
2023/10/31 19:59:55;;;;;;;17.30;10.57;;;;;;;;;;10359879;28;20149;-81
2023/10/31 20:04:56;;;;;;;20.30;11.75;;;;;;;;;;10356912;28;20041;-83
2023/10/31 20:09:57;;;;;;;30.05;17.30;;;;;;;;;;10367068;28;20041;-83
2023/10/31 20:14:58;;;;;;;40.03;22.50;;;;;;;;;;10346405;28;20381;-83
2023/10/31 20:19:59;;;;;;;89.22;59.67;;;;;;;;;;10359743;28;20049;-82
2023/10/31 20:25:00;;;;;;;30.92;18.48;;;;;;;;;;10344423;28;20720;-83
2023/10/31 20:30:05;;;;;;;35.50;20.70;;;;;;;;;;10361032;28;20038;-83
2023/10/31 20:35:06;;;;;;;35.07;21.47;;;;;;;;;;10360177;28;20036;-82
2023/10/31 20:40:12;;;;;;;33.58;18.02;;;;;;;;;;10360014;28;20061;-82
2023/10/31 20:45:13;;;;;;;41.67;20.25;;;;;;;;;;10443132;22;20152;-82
2023/10/31 20:55:54;;;;;;;34.00;19.17;;;;;;;;;;10453898;28;20045;-82
2023/10/31 21:00:58;;;;;;;33.72;17.23;;;;;;;;;;10444479;28;20041;-82
2023/10/31 21:05:59;;;;;;;35.45;17.50;;;;;;;;;;10445195;28;20481;-81
2023/10/31 21:11:00;;;;;;;35.00;19.23;;;;;;;;;;10451823;28;20079;-85
2023/10/31 21:16:02;;;;;;;35.88;18.67;;;;;;;;;;10457250;28;20036;-81
2023/10/31 21:21:03;;;;;;;38.47;20.42;;;;;;;;;;10454801;28;20040;-81
2023/10/31 21:26:05;;;;;;;38.00;18.08;;;;;;;;;;10451880;28;20484;-81
2023/10/31 21:31:06;;;;;;;26.40;16.77;;;;;;;;;;10451527;28;20033;-80
2023/10/31 21:36:07;;;;;;;29.27;16.08;;;;;;;;;;10451069;28;20048;-83
2023/10/31 21:41:09;;;;;;;27.70;16.20;;;;;;;;;;10450210;28;20037;-83
2023/10/31 21:46:10;;;;;;;28.38;15.38;;;;;;;;;;10447939;28;20056;-83
2023/10/31 21:51:11;;;;;;;28.27;15.88;;;;;;;;;;10448243;28;20025;-84
2023/10/31 21:56:12;;;;;;;24.98;14.63;;;;;;;;;;10449266;28;20025;-83
2023/10/31 22:01:13;;;;;;;24.08;13.00;;;;;;;;;;10449559;28;20032;-83
2023/10/31 22:06:14;;;;;;;22.63;13.15;;;;;;;;;;10449911;28;20167;-82
2023/10/31 22:11:15;;;;;;;23.73;13.68;;;;;;;;;;10451151;28;20025;-83
2023/10/31 22:16:16;;;;;;;22.00;13.23;;;;;;;;;;10435706;28;20036;-81
2023/10/31 22:21:17;;;;;;;21.65;13.15;;;;;;;;;;10456683;28;20119;-81
2023/10/31 22:26:20;;;;;;;23.20;13.15;;;;;;;;;;10451689;28;20033;-82
2023/10/31 22:31:21;;;;;;;23.05;12.70;;;;;;;;;;10451730;28;20021;-81
2023/10/31 22:36:22;;;;;;;22.48;12.75;;;;;;;;;;10448033;28;20036;-82
2023/10/31 22:41:23;;;;;;;21.20;12.50;;;;;;;;;;10445964;28;20078;-80
2023/10/31 22:46:24;;;;;;;22.10;12.32;;;;;;;;;;10441862;28;20048;-80
2023/10/31 22:51:25;;;;;;;18.67;11.63;;;;;;;;;;10451059;28;20136;-81
2023/10/31 22:56:28;;;;;;;20.23;12.70;;;;;;;;;;10453132;28;20378;-80
2023/10/31 23:01:29;;;;;;;20.33;12.02;;;;;;;;;;10446742;28;20056;-81
2023/10/31 23:06:31;;;;;;;22.35;14.18;;;;;;;;;;10452201;28;20094;-81
2023/10/31 23:11:32;;;;;;;22.83;14.00;;;;;;;;;;10481830;22;20061;-81
2023/10/31 23:16:33;;;;;;;21.15;12.98;;;;;;;;;;10491921;28;20104;-81
2023/10/31 23:21:34;;;;;;;22.17;12.77;;;;;;;;;;10491029;28;20036;-81
2023/10/31 23:26:36;;;;;;;25.05;13.98;;;;;;;;;;10487102;28;20036;-81
2023/10/31 23:31:37;;;;;;;25.05;14.45;;;;;;;;;;10487343;28;20547;-81
2023/10/31 23:36:38;;;;;;;19.58;12.43;;;;;;;;;;10486865;28;20016;-82
2023/10/31 23:41:39;;;;;;;22.73;13.68;;;;;;;;;;10469674;22;20061;-81
2023/10/31 23:46:40;;;;;;;19.67;12.82;;;;;;;;;;10446504;28;20144;-81
2023/10/31 23:51:41;;;;;;;27.30;14.55;;;;;;;;;;10483499;28;20081;-81
2023/10/31 23:56:42;;;;;;;25.75;14.05;;;;;;;;;;10471488;28;20094;-80
